sensor_id;sensor_type;location;lat;lon;timestamp;temperature;humidity
5834;DHT22;2943;48.012;10.968;2023-07-20T00:02:07;20.30;99.90
5834;DHT22;2943;48.012;10.968;2023-07-20T00:04:33;20.30;99.90
5834;DHT22;2943;48.012;10.968;2023-07-20T00:07:00;20.20;99.90
5834;DHT22;2943;48.012;10.968;2023-07-20T00:09:27;20.20;99.90
5834;DHT22;2943;48.012;10.968;2023-07-20T00:11:54;20.20;99.90
5834;DHT22;2943;48.012;10.968;2023-07-20T00:14:22;20.10;99.90
5834;DHT22;2943;48.012;10.968;2023-07-20T00:16:50;20.20;99.90
5834;DHT22;2943;48.012;10.968;2023-07-20T00:19:21;20.10;99.90
5834;DHT22;2943;48.012;10.968;2023-07-20T00:21:48;20.10;99.90
5834;DHT22;2943;48.012;10.968;2023-07-20T00:24:14;20.10;99.90
5834;DHT22;2943;48.012;10.968;2023-07-20T00:26:41;20.20;99.90
5834;DHT22;2943;48.012;10.968;2023-07-20T00:29:09;20.20;99.90
5834;DHT22;2943;48.012;10.968;2023-07-20T00:31:37;20.20;99.90
5834;DHT22;2943;48.012;10.968;2023-07-20T00:34:03;20.20;99.90
5834;DHT22;2943;48.012;10.968;2023-07-20T00:36:31;20.20;99.90
5834;DHT22;2943;48.012;10.968;2023-07-20T00:38:57;20.30;99.90
5834;DHT22;2943;48.012;10.968;2023-07-20T00:41:24;20.30;99.90
5834;DHT22;2943;48.012;10.968;2023-07-20T00:43:54;20.30;99.90
5834;DHT22;2943;48.012;10.968;2023-07-20T00:46:23;20.30;99.90
5834;DHT22;2943;48.012;10.968;2023-07-20T00:48:52;20.30;99.90
5834;DHT22;2943;48.012;10.968;2023-07-20T00:51:20;20.30;99.90
5834;DHT22;2943;48.012;10.968;2023-07-20T00:53:47;20.30;99.90
5834;DHT22;2943;48.012;10.968;2023-07-20T00:56:15;20.30;99.90
5834;DHT22;2943;48.012;10.968;2023-07-20T00:58:41;20.30;99.90
5834;DHT22;2943;48.012;10.968;2023-07-20T01:01:08;20.30;99.90
5834;DHT22;2943;48.012;10.968;2023-07-20T01:03:36;20.30;99.90
5834;DHT22;2943;48.012;10.968;2023-07-20T01:06:14;20.30;99.90
5834;DHT22;2943;48.012;10.968;2023-07-20T01:08:50;20.20;99.90
5834;DHT22;2943;48.012;10.968;2023-07-20T01:11:27;20.20;99.90
5834;DHT22;2943;48.012;10.968;2023-07-20T01:13:55;20.20;99.90
5834;DHT22;2943;48.012;10.968;2023-07-20T01:16:22;20.10;99.90
5834;DHT22;2943;48.012;10.968;2023-07-20T01:18:50;20.10;99.90
5834;DHT22;2943;48.012;10.968;2023-07-20T01:21:24;20.10;99.90
5834;DHT22;2943;48.012;10.968;2023-07-20T01:24:10;20.10;99.90
5834;DHT22;2943;48.012;10.968;2023-07-20T01:27:00;20.10;99.90
5834;DHT22;2943;48.012;10.968;2023-07-20T01:29:41;20.10;99.90
5834;DHT22;2943;48.012;10.968;2023-07-20T01:32:11;20.10;99.90
5834;DHT22;2943;48.012;10.968;2023-07-20T01:34:39;20.10;99.90
5834;DHT22;2943;48.012;10.968;2023-07-20T01:37:08;20.20;99.90
5834;DHT22;2943;48.012;10.968;2023-07-20T01:39:36;20.20;99.90
5834;DHT22;2943;48.012;10.968;2023-07-20T01:42:04;20.30;99.90
5834;DHT22;2943;48.012;10.968;2023-07-20T01:44:31;20.30;99.90
5834;DHT22;2943;48.012;10.968;2023-07-20T01:46:58;20.30;99.90
5834;DHT22;2943;48.012;10.968;2023-07-20T01:49:26;20.40;99.90
5834;DHT22;2943;48.012;10.968;2023-07-20T01:51:53;20.40;99.90
5834;DHT22;2943;48.012;10.968;2023-07-20T01:54:19;20.40;99.90
5834;DHT22;2943;48.012;10.968;2023-07-20T01:56:46;20.40;99.90
5834;DHT22;2943;48.012;10.968;2023-07-20T01:59:13;20.40;99.90
5834;DHT22;2943;48.012;10.968;2023-07-20T02:01:40;20.40;99.90
5834;DHT22;2943;48.012;10.968;2023-07-20T02:04:07;20.40;99.90
5834;DHT22;2943;48.012;10.968;2023-07-20T02:06:35;20.40;99.90
5834;DHT22;2943;48.012;10.968;2023-07-20T02:09:02;20.40;99.90
5834;DHT22;2943;48.012;10.968;2023-07-20T02:11:28;20.40;99.90
5834;DHT22;2943;48.012;10.968;2023-07-20T02:13:55;20.40;99.90
5834;DHT22;2943;48.012;10.968;2023-07-20T02:16:22;20.30;99.90
5834;DHT22;2943;48.012;10.968;2023-07-20T02:18:48;20.30;99.90
5834;DHT22;2943;48.012;10.968;2023-07-20T02:21:15;20.20;99.90
5834;DHT22;2943;48.012;10.968;2023-07-20T02:23:44;20.10;99.90
5834;DHT22;2943;48.012;10.968;2023-07-20T02:26:11;20.00;99.90
5834;DHT22;2943;48.012;10.968;2023-07-20T02:28:37;20.00;99.90
5834;DHT22;2943;48.012;10.968;2023-07-20T02:31:04;19.90;99.90
5834;DHT22;2943;48.012;10.968;2023-07-20T02:33:31;19.90;99.90
5834;DHT22;2943;48.012;10.968;2023-07-20T02:35:58;19.90;99.90
5834;DHT22;2943;48.012;10.968;2023-07-20T02:38:24;19.90;99.90
5834;DHT22;2943;48.012;10.968;2023-07-20T02:40:53;20.00;99.90
5834;DHT22;2943;48.012;10.968;2023-07-20T02:43:19;19.80;99.90
5834;DHT22;2943;48.012;10.968;2023-07-20T02:45:46;19.90;99.90
5834;DHT22;2943;48.012;10.968;2023-07-20T02:48:13;19.80;99.90
5834;DHT22;2943;48.012;10.968;2023-07-20T02:50:40;19.60;99.90
5834;DHT22;2943;48.012;10.968;2023-07-20T02:53:06;19.50;99.90
5834;DHT22;2943;48.012;10.968;2023-07-20T02:55:33;19.30;99.90
5834;DHT22;2943;48.012;10.968;2023-07-20T02:58:02;19.20;99.90
5834;DHT22;2943;48.012;10.968;2023-07-20T03:00:28;19.10;99.90
5834;DHT22;2943;48.012;10.968;2023-07-20T03:02:55;19.10;99.90
5834;DHT22;2943;48.012;10.968;2023-07-20T03:05:22;18.90;99.90
5834;DHT22;2943;48.012;10.968;2023-07-20T03:07:50;18.90;99.90
5834;DHT22;2943;48.012;10.968;2023-07-20T03:10:17;18.80;99.90
5834;DHT22;2943;48.012;10.968;2023-07-20T03:12:44;18.80;99.90
5834;DHT22;2943;48.012;10.968;2023-07-20T03:15:12;18.70;99.90
5834;DHT22;2943;48.012;10.968;2023-07-20T03:17:39;18.70;99.90
5834;DHT22;2943;48.012;10.968;2023-07-20T03:20:07;18.80;99.90
5834;DHT22;2943;48.012;10.968;2023-07-20T03:22:35;18.80;99.90
5834;DHT22;2943;48.012;10.968;2023-07-20T03:25:03;18.80;99.90
5834;DHT22;2943;48.012;10.968;2023-07-20T03:27:30;18.80;99.90
5834;DHT22;2943;48.012;10.968;2023-07-20T03:29:57;18.80;99.90
5834;DHT22;2943;48.012;10.968;2023-07-20T03:32:25;18.80;99.90
5834;DHT22;2943;48.012;10.968;2023-07-20T03:34:52;18.80;99.90
5834;DHT22;2943;48.012;10.968;2023-07-20T03:37:19;18.80;99.90
5834;DHT22;2943;48.012;10.968;2023-07-20T03:39:47;18.90;99.90
5834;DHT22;2943;48.012;10.968;2023-07-20T03:42:13;18.90;99.90
5834;DHT22;2943;48.012;10.968;2023-07-20T03:44:40;18.90;99.90
5834;DHT22;2943;48.012;10.968;2023-07-20T03:47:07;18.90;99.90
5834;DHT22;2943;48.012;10.968;2023-07-20T03:49:36;18.90;99.90
5834;DHT22;2943;48.012;10.968;2023-07-20T03:52:03;19.00;99.90
5834;DHT22;2943;48.012;10.968;2023-07-20T03:54:30;19.00;99.90
5834;DHT22;2943;48.012;10.968;2023-07-20T03:56:57;19.00;99.90
5834;DHT22;2943;48.012;10.968;2023-07-20T03:59:24;19.00;99.90
5834;DHT22;2943;48.012;10.968;2023-07-20T04:01:51;19.00;99.90
5834;DHT22;2943;48.012;10.968;2023-07-20T04:04:18;19.00;99.90
5834;DHT22;2943;48.012;10.968;2023-07-20T04:06:46;19.00;99.90
5834;DHT22;2943;48.012;10.968;2023-07-20T04:09:13;19.00;99.90
5834;DHT22;2943;48.012;10.968;2023-07-20T04:11:40;18.90;99.90
5834;DHT22;2943;48.012;10.968;2023-07-20T04:14:07;18.90;99.90
5834;DHT22;2943;48.012;10.968;2023-07-20T04:16:33;18.90;99.90
5834;DHT22;2943;48.012;10.968;2023-07-20T04:19:00;18.90;99.90
5834;DHT22;2943;48.012;10.968;2023-07-20T04:21:27;18.90;99.90
5834;DHT22;2943;48.012;10.968;2023-07-20T04:23:55;18.90;99.90
5834;DHT22;2943;48.012;10.968;2023-07-20T04:26:22;18.90;99.90
5834;DHT22;2943;48.012;10.968;2023-07-20T04:28:49;19.00;99.90
5834;DHT22;2943;48.012;10.968;2023-07-20T04:31:16;19.00;99.90
5834;DHT22;2943;48.012;10.968;2023-07-20T04:33:43;19.00;99.90
5834;DHT22;2943;48.012;10.968;2023-07-20T04:36:09;19.00;99.90
5834;DHT22;2943;48.012;10.968;2023-07-20T04:38:36;18.90;99.90
5834;DHT22;2943;48.012;10.968;2023-07-20T04:41:04;18.80;99.90
5834;DHT22;2943;48.012;10.968;2023-07-20T04:43:31;18.60;99.90
5834;DHT22;2943;48.012;10.968;2023-07-20T04:45:58;18.60;99.90
5834;DHT22;2943;48.012;10.968;2023-07-20T04:48:24;18.50;99.90
5834;DHT22;2943;48.012;10.968;2023-07-20T04:50:51;18.40;99.90
5834;DHT22;2943;48.012;10.968;2023-07-20T04:53:18;18.40;99.90
5834;DHT22;2943;48.012;10.968;2023-07-20T04:55:48;18.30;99.90
5834;DHT22;2943;48.012;10.968;2023-07-20T04:58:18;18.30;99.90
5834;DHT22;2943;48.012;10.968;2023-07-20T05:00:45;18.30;99.90
5834;DHT22;2943;48.012;10.968;2023-07-20T05:03:12;18.30;99.90
5834;DHT22;2943;48.012;10.968;2023-07-20T05:05:39;18.40;99.90
5834;DHT22;2943;48.012;10.968;2023-07-20T05:08:06;18.30;99.90
5834;DHT22;2943;48.012;10.968;2023-07-20T05:10:32;18.40;99.90
5834;DHT22;2943;48.012;10.968;2023-07-20T05:12:59;18.40;99.90
5834;DHT22;2943;48.012;10.968;2023-07-20T05:15:27;18.40;99.90
5834;DHT22;2943;48.012;10.968;2023-07-20T05:17:54;18.40;99.90
5834;DHT22;2943;48.012;10.968;2023-07-20T05:20:21;18.40;99.90
5834;DHT22;2943;48.012;10.968;2023-07-20T05:22:48;18.80;99.90
5834;DHT22;2943;48.012;10.968;2023-07-20T05:25:15;19.10;99.90
5834;DHT22;2943;48.012;10.968;2023-07-20T05:27:44;19.40;99.90
5834;DHT22;2943;48.012;10.968;2023-07-20T05:30:12;19.80;99.90
5834;DHT22;2943;48.012;10.968;2023-07-20T05:32:40;20.00;99.90
5834;DHT22;2943;48.012;10.968;2023-07-20T05:35:08;20.00;99.90
5834;DHT22;2943;48.012;10.968;2023-07-20T05:37:37;19.90;99.90
5834;DHT22;2943;48.012;10.968;2023-07-20T05:40:05;19.80;99.90
5834;DHT22;2943;48.012;10.968;2023-07-20T05:42:33;19.60;99.90
5834;DHT22;2943;48.012;10.968;2023-07-20T05:45:00;19.50;99.90
5834;DHT22;2943;48.012;10.968;2023-07-20T05:47:26;19.40;99.90
5834;DHT22;2943;48.012;10.968;2023-07-20T05:49:55;19.30;99.90
5834;DHT22;2943;48.012;10.968;2023-07-20T05:52:22;19.20;99.90
5834;DHT22;2943;48.012;10.968;2023-07-20T05:54:49;19.20;99.90
5834;DHT22;2943;48.012;10.968;2023-07-20T05:57:16;19.00;99.90
5834;DHT22;2943;48.012;10.968;2023-07-20T05:59:43;18.90;99.90
5834;DHT22;2943;48.012;10.968;2023-07-20T06:02:10;18.90;99.90
5834;DHT22;2943;48.012;10.968;2023-07-20T06:04:36;18.90;99.90
5834;DHT22;2943;48.012;10.968;2023-07-20T06:07:05;18.80;99.90
5834;DHT22;2943;48.012;10.968;2023-07-20T06:09:33;18.80;99.90
5834;DHT22;2943;48.012;10.968;2023-07-20T06:12:00;18.80;99.90
5834;DHT22;2943;48.012;10.968;2023-07-20T06:14:26;18.80;99.90
5834;DHT22;2943;48.012;10.968;2023-07-20T06:16:53;18.70;99.90
5834;DHT22;2943;48.012;10.968;2023-07-20T06:19:20;18.70;99.90
5834;DHT22;2943;48.012;10.968;2023-07-20T06:21:48;18.70;99.90
5834;DHT22;2943;48.012;10.968;2023-07-20T06:24:16;18.70;99.90
5834;DHT22;2943;48.012;10.968;2023-07-20T06:26:43;18.60;99.90
5834;DHT22;2943;48.012;10.968;2023-07-20T06:29:10;18.50;99.90
5834;DHT22;2943;48.012;10.968;2023-07-20T06:31:37;18.50;99.90
5834;DHT22;2943;48.012;10.968;2023-07-20T06:34:04;18.50;99.90
5834;DHT22;2943;48.012;10.968;2023-07-20T06:36:30;18.60;99.90
5834;DHT22;2943;48.012;10.968;2023-07-20T06:38:57;18.60;99.90
5834;DHT22;2943;48.012;10.968;2023-07-20T06:41:25;18.70;99.90
5834;DHT22;2943;48.012;10.968;2023-07-20T06:43:52;18.70;99.90
5834;DHT22;2943;48.012;10.968;2023-07-20T06:46:23;18.70;99.90
5834;DHT22;2943;48.012;10.968;2023-07-20T06:48:50;18.70;99.90
5834;DHT22;2943;48.012;10.968;2023-07-20T06:51:17;18.80;99.90
5834;DHT22;2943;48.012;10.968;2023-07-20T06:53:44;18.90;99.90
5834;DHT22;2943;48.012;10.968;2023-07-20T06:56:11;18.90;99.90
5834;DHT22;2943;48.012;10.968;2023-07-20T06:58:40;18.90;99.90
5834;DHT22;2943;48.012;10.968;2023-07-20T07:01:07;19.00;99.90
5834;DHT22;2943;48.012;10.968;2023-07-20T07:03:34;19.00;99.90
5834;DHT22;2943;48.012;10.968;2023-07-20T07:06:02;19.10;99.90
5834;DHT22;2943;48.012;10.968;2023-07-20T07:08:29;19.10;99.90
5834;DHT22;2943;48.012;10.968;2023-07-20T07:10:56;19.20;99.90
5834;DHT22;2943;48.012;10.968;2023-07-20T07:13:23;19.40;99.90
5834;DHT22;2943;48.012;10.968;2023-07-20T07:15:51;19.40;99.90
5834;DHT22;2943;48.012;10.968;2023-07-20T07:18:18;19.50;99.90
5834;DHT22;2943;48.012;10.968;2023-07-20T07:20:51;19.40;99.90
5834;DHT22;2943;48.012;10.968;2023-07-20T07:23:18;19.50;99.90
5834;DHT22;2943;48.012;10.968;2023-07-20T07:25:45;19.50;99.90
5834;DHT22;2943;48.012;10.968;2023-07-20T07:28:12;19.50;99.90
5834;DHT22;2943;48.012;10.968;2023-07-20T07:30:39;19.50;99.90
5834;DHT22;2943;48.012;10.968;2023-07-20T07:33:07;19.70;99.90
5834;DHT22;2943;48.012;10.968;2023-07-20T07:35:35;19.70;99.90
5834;DHT22;2943;48.012;10.968;2023-07-20T07:38:02;19.90;99.90
5834;DHT22;2943;48.012;10.968;2023-07-20T07:40:28;19.80;99.90
5834;DHT22;2943;48.012;10.968;2023-07-20T07:42:55;19.90;99.90
5834;DHT22;2943;48.012;10.968;2023-07-20T07:45:22;19.90;99.90
5834;DHT22;2943;48.012;10.968;2023-07-20T07:47:49;19.90;99.90
5834;DHT22;2943;48.012;10.968;2023-07-20T07:50:17;19.90;99.90
5834;DHT22;2943;48.012;10.968;2023-07-20T07:52:44;19.90;99.90
5834;DHT22;2943;48.012;10.968;2023-07-20T07:55:11;20.00;99.90
5834;DHT22;2943;48.012;10.968;2023-07-20T07:57:37;20.10;99.90
5834;DHT22;2943;48.012;10.968;2023-07-20T08:00:06;20.20;99.90
5834;DHT22;2943;48.012;10.968;2023-07-20T08:02:37;20.20;99.90
5834;DHT22;2943;48.012;10.968;2023-07-20T08:05:04;20.30;99.90
5834;DHT22;2943;48.012;10.968;2023-07-20T08:07:32;20.30;99.90
5834;DHT22;2943;48.012;10.968;2023-07-20T08:09:59;20.40;99.90
5834;DHT22;2943;48.012;10.968;2023-07-20T08:12:26;20.40;99.90
5834;DHT22;2943;48.012;10.968;2023-07-20T08:14:53;20.60;99.90
5834;DHT22;2943;48.012;10.968;2023-07-20T08:17:20;20.60;99.90
5834;DHT22;2943;48.012;10.968;2023-07-20T08:19:46;20.70;99.90
5834;DHT22;2943;48.012;10.968;2023-07-20T08:22:13;20.70;99.90
5834;DHT22;2943;48.012;10.968;2023-07-20T08:24:43;20.80;99.90
5834;DHT22;2943;48.012;10.968;2023-07-20T08:27:10;20.90;99.90
5834;DHT22;2943;48.012;10.968;2023-07-20T08:29:37;20.80;99.90
5834;DHT22;2943;48.012;10.968;2023-07-20T08:32:05;20.90;99.90
5834;DHT22;2943;48.012;10.968;2023-07-20T08:34:32;21.00;99.90
5834;DHT22;2943;48.012;10.968;2023-07-20T08:36:59;21.10;99.90
5834;DHT22;2943;48.012;10.968;2023-07-20T08:39:26;21.10;99.90
5834;DHT22;2943;48.012;10.968;2023-07-20T08:41:54;21.20;99.90
5834;DHT22;2943;48.012;10.968;2023-07-20T08:44:22;21.20;99.90
5834;DHT22;2943;48.012;10.968;2023-07-20T08:46:49;21.10;99.90
5834;DHT22;2943;48.012;10.968;2023-07-20T08:49:18;21.10;99.90
5834;DHT22;2943;48.012;10.968;2023-07-20T08:51:46;21.10;99.90
5834;DHT22;2943;48.012;10.968;2023-07-20T08:54:16;21.30;99.90
5834;DHT22;2943;48.012;10.968;2023-07-20T08:56:45;21.40;99.90
5834;DHT22;2943;48.012;10.968;2023-07-20T08:59:16;21.50;99.90
5834;DHT22;2943;48.012;10.968;2023-07-20T09:01:44;21.60;99.90
5834;DHT22;2943;48.012;10.968;2023-07-20T09:04:12;21.80;99.90
5834;DHT22;2943;48.012;10.968;2023-07-20T09:06:39;21.70;99.90
5834;DHT22;2943;48.012;10.968;2023-07-20T09:09:06;21.60;99.90
5834;DHT22;2943;48.012;10.968;2023-07-20T09:11:33;21.60;99.90
5834;DHT22;2943;48.012;10.968;2023-07-20T09:14:03;21.60;99.90
5834;DHT22;2943;48.012;10.968;2023-07-20T09:16:31;21.60;99.90
5834;DHT22;2943;48.012;10.968;2023-07-20T09:18:58;21.70;99.90
5834;DHT22;2943;48.012;10.968;2023-07-20T09:21:29;21.80;99.90
5834;DHT22;2943;48.012;10.968;2023-07-20T09:23:56;22.00;99.90
5834;DHT22;2943;48.012;10.968;2023-07-20T09:26:23;22.10;99.90
5834;DHT22;2943;48.012;10.968;2023-07-20T09:28:52;22.20;99.90
5834;DHT22;2943;48.012;10.968;2023-07-20T09:31:21;22.20;99.90
5834;DHT22;2943;48.012;10.968;2023-07-20T09:33:51;22.30;99.90
5834;DHT22;2943;48.012;10.968;2023-07-20T09:36:18;22.30;99.90
5834;DHT22;2943;48.012;10.968;2023-07-20T09:38:45;22.30;99.90
5834;DHT22;2943;48.012;10.968;2023-07-20T09:41:13;22.30;99.90
5834;DHT22;2943;48.012;10.968;2023-07-20T09:43:41;22.10;99.90
5834;DHT22;2943;48.012;10.968;2023-07-20T09:46:07;22.10;99.90
5834;DHT22;2943;48.012;10.968;2023-07-20T09:48:35;22.00;99.90
5834;DHT22;2943;48.012;10.968;2023-07-20T09:51:03;22.10;99.90
5834;DHT22;2943;48.012;10.968;2023-07-20T09:53:33;22.10;99.90
5834;DHT22;2943;48.012;10.968;2023-07-20T09:56:00;22.20;99.90
5834;DHT22;2943;48.012;10.968;2023-07-20T09:58:27;22.20;99.90
5834;DHT22;2943;48.012;10.968;2023-07-20T10:00:57;22.30;99.90
5834;DHT22;2943;48.012;10.968;2023-07-20T10:03:28;22.30;99.90
5834;DHT22;2943;48.012;10.968;2023-07-20T10:05:57;22.30;99.90
5834;DHT22;2943;48.012;10.968;2023-07-20T10:08:26;22.30;99.90
5834;DHT22;2943;48.012;10.968;2023-07-20T10:10:54;22.30;99.90
5834;DHT22;2943;48.012;10.968;2023-07-20T10:13:27;22.20;99.90
5834;DHT22;2943;48.012;10.968;2023-07-20T10:15:59;22.20;99.90
5834;DHT22;2943;48.012;10.968;2023-07-20T10:18:31;22.30;99.90
5834;DHT22;2943;48.012;10.968;2023-07-20T10:20:59;22.50;99.90
5834;DHT22;2943;48.012;10.968;2023-07-20T10:23:29;22.70;99.90
5834;DHT22;2943;48.012;10.968;2023-07-20T10:25:57;22.80;99.90
5834;DHT22;2943;48.012;10.968;2023-07-20T10:28:24;22.90;99.90
5834;DHT22;2943;48.012;10.968;2023-07-20T10:30:51;22.80;99.90
5834;DHT22;2943;48.012;10.968;2023-07-20T10:33:18;22.90;99.90
5834;DHT22;2943;48.012;10.968;2023-07-20T10:35:53;23.00;99.90
5834;DHT22;2943;48.012;10.968;2023-07-20T10:38:20;23.10;99.90
5834;DHT22;2943;48.012;10.968;2023-07-20T10:40:55;23.20;99.90
5834;DHT22;2943;48.012;10.968;2023-07-20T10:43:22;23.20;99.90
5834;DHT22;2943;48.012;10.968;2023-07-20T10:45:50;23.30;99.90
5834;DHT22;2943;48.012;10.968;2023-07-20T10:48:19;23.30;99.90
5834;DHT22;2943;48.012;10.968;2023-07-20T10:53:28;23.10;99.90
5834;DHT22;2943;48.012;10.968;2023-07-20T10:56:07;23.10;99.90
5834;DHT22;2943;48.012;10.968;2023-07-20T10:58:35;23.20;99.90
5834;DHT22;2943;48.012;10.968;2023-07-20T11:01:03;23.20;99.90
5834;DHT22;2943;48.012;10.968;2023-07-20T11:03:32;23.10;99.90
5834;DHT22;2943;48.012;10.968;2023-07-20T11:05:59;23.10;99.90
5834;DHT22;2943;48.012;10.968;2023-07-20T11:08:38;23.00;99.90
5834;DHT22;2943;48.012;10.968;2023-07-20T11:11:22;23.00;99.90
5834;DHT22;2943;48.012;10.968;2023-07-20T11:14:00;23.10;99.90
5834;DHT22;2943;48.012;10.968;2023-07-20T11:16:38;23.10;99.90
5834;DHT22;2943;48.012;10.968;2023-07-20T11:19:13;23.10;99.90
5834;DHT22;2943;48.012;10.968;2023-07-20T11:21:42;23.20;99.90
5834;DHT22;2943;48.012;10.968;2023-07-20T11:24:09;23.40;99.90
5834;DHT22;2943;48.012;10.968;2023-07-20T11:26:42;23.50;99.90
5834;DHT22;2943;48.012;10.968;2023-07-20T11:29:09;23.70;99.90
5834;DHT22;2943;48.012;10.968;2023-07-20T11:31:37;23.80;99.90
5834;DHT22;2943;48.012;10.968;2023-07-20T11:34:05;24.00;99.90
5834;DHT22;2943;48.012;10.968;2023-07-20T11:36:32;24.00;99.90
5834;DHT22;2943;48.012;10.968;2023-07-20T11:38:59;24.10;99.90
5834;DHT22;2943;48.012;10.968;2023-07-20T11:41:26;23.90;99.90
5834;DHT22;2943;48.012;10.968;2023-07-20T11:43:55;23.90;99.90
5834;DHT22;2943;48.012;10.968;2023-07-20T11:46:23;23.70;99.90
5834;DHT22;2943;48.012;10.968;2023-07-20T11:48:56;23.80;99.90
5834;DHT22;2943;48.012;10.968;2023-07-20T11:51:24;23.90;99.90
5834;DHT22;2943;48.012;10.968;2023-07-20T11:53:51;24.10;99.90
5834;DHT22;2943;48.012;10.968;2023-07-20T11:56:18;24.20;99.90
5834;DHT22;2943;48.012;10.968;2023-07-20T11:58:45;24.30;99.90
5834;DHT22;2943;48.012;10.968;2023-07-20T12:01:14;24.40;99.90
5834;DHT22;2943;48.012;10.968;2023-07-20T12:03:42;24.40;99.90
5834;DHT22;2943;48.012;10.968;2023-07-20T12:06:09;24.40;99.90
5834;DHT22;2943;48.012;10.968;2023-07-20T12:08:38;24.60;99.90
5834;DHT22;2943;48.012;10.968;2023-07-20T12:11:06;24.80;99.90
5834;DHT22;2943;48.012;10.968;2023-07-20T12:13:42;24.90;99.90
5834;DHT22;2943;48.012;10.968;2023-07-20T12:16:10;25.10;99.90
5834;DHT22;2943;48.012;10.968;2023-07-20T12:18:39;25.20;99.90
5834;DHT22;2943;48.012;10.968;2023-07-20T12:21:06;25.30;99.90
5834;DHT22;2943;48.012;10.968;2023-07-20T12:23:38;25.30;99.90
5834;DHT22;2943;48.012;10.968;2023-07-20T12:26:06;25.30;99.90
5834;DHT22;2943;48.012;10.968;2023-07-20T12:28:38;25.30;99.90
5834;DHT22;2943;48.012;10.968;2023-07-20T12:31:06;25.20;99.90
5834;DHT22;2943;48.012;10.968;2023-07-20T12:33:33;25.10;99.90
5834;DHT22;2943;48.012;10.968;2023-07-20T12:36:01;25.10;99.90
5834;DHT22;2943;48.012;10.968;2023-07-20T12:38:28;25.20;99.90
5834;DHT22;2943;48.012;10.968;2023-07-20T12:40:56;25.20;99.90
5834;DHT22;2943;48.012;10.968;2023-07-20T12:43:24;25.30;99.90
5834;DHT22;2943;48.012;10.968;2023-07-20T12:45:51;25.30;99.90
5834;DHT22;2943;48.012;10.968;2023-07-20T12:48:18;25.00;99.90
5834;DHT22;2943;48.012;10.968;2023-07-20T12:50:45;24.80;99.90
5834;DHT22;2943;48.012;10.968;2023-07-20T12:53:13;24.70;99.90
5834;DHT22;2943;48.012;10.968;2023-07-20T12:55:40;24.80;99.90
5834;DHT22;2943;48.012;10.968;2023-07-20T12:58:07;24.90;99.90
5834;DHT22;2943;48.012;10.968;2023-07-20T13:00:34;24.90;99.90
5834;DHT22;2943;48.012;10.968;2023-07-20T13:03:01;25.00;99.90
5834;DHT22;2943;48.012;10.968;2023-07-20T13:05:30;25.00;99.90
5834;DHT22;2943;48.012;10.968;2023-07-20T13:07:58;25.00;99.90
5834;DHT22;2943;48.012;10.968;2023-07-20T13:10:26;25.00;99.90
5834;DHT22;2943;48.012;10.968;2023-07-20T13:12:54;25.10;99.90
5834;DHT22;2943;48.012;10.968;2023-07-20T13:15:23;25.30;99.90
5834;DHT22;2943;48.012;10.968;2023-07-20T13:17:51;25.40;99.90
5834;DHT22;2943;48.012;10.968;2023-07-20T13:20:18;25.50;99.90
5834;DHT22;2943;48.012;10.968;2023-07-20T13:22:44;25.60;99.90
5834;DHT22;2943;48.012;10.968;2023-07-20T13:25:11;25.70;99.90
5834;DHT22;2943;48.012;10.968;2023-07-20T13:27:40;25.80;99.90
5834;DHT22;2943;48.012;10.968;2023-07-20T13:30:07;26.10;99.90
5834;DHT22;2943;48.012;10.968;2023-07-20T13:32:37;26.30;99.90
5834;DHT22;2943;48.012;10.968;2023-07-20T13:35:05;26.50;99.90
5834;DHT22;2943;48.012;10.968;2023-07-20T13:37:31;26.60;99.90
5834;DHT22;2943;48.012;10.968;2023-07-20T13:39:59;26.70;99.90
5834;DHT22;2943;48.012;10.968;2023-07-20T13:42:26;26.80;99.90
5834;DHT22;2943;48.012;10.968;2023-07-20T13:44:54;26.80;99.90
5834;DHT22;2943;48.012;10.968;2023-07-20T13:47:21;26.80;99.90
5834;DHT22;2943;48.012;10.968;2023-07-20T13:49:48;26.80;99.80
5834;DHT22;2943;48.012;10.968;2023-07-20T13:52:15;26.90;99.90
5834;DHT22;2943;48.012;10.968;2023-07-20T13:54:41;27.00;99.90
5834;DHT22;2943;48.012;10.968;2023-07-20T13:57:08;27.10;99.90
5834;DHT22;2943;48.012;10.968;2023-07-20T13:59:35;27.20;99.90
5834;DHT22;2943;48.012;10.968;2023-07-20T14:02:04;27.30;99.90
5834;DHT22;2943;48.012;10.968;2023-07-20T14:04:31;27.30;99.00
5834;DHT22;2943;48.012;10.968;2023-07-20T14:06:57;27.20;98.40
5834;DHT22;2943;48.012;10.968;2023-07-20T14:09:24;27.20;99.20
5834;DHT22;2943;48.012;10.968;2023-07-20T14:11:51;27.30;98.40
5834;DHT22;2943;48.012;10.968;2023-07-20T14:14:18;27.40;98.30
5834;DHT22;2943;48.012;10.968;2023-07-20T14:16:45;27.70;98.20
5834;DHT22;2943;48.012;10.968;2023-07-20T14:19:13;27.80;98.20
5834;DHT22;2943;48.012;10.968;2023-07-20T14:21:40;27.70;98.00
5834;DHT22;2943;48.012;10.968;2023-07-20T14:24:07;27.60;97.70
5834;DHT22;2943;48.012;10.968;2023-07-20T14:26:34;27.60;97.80
5834;DHT22;2943;48.012;10.968;2023-07-20T14:29:01;27.60;98.00
5834;DHT22;2943;48.012;10.968;2023-07-20T14:31:28;27.70;97.90
5834;DHT22;2943;48.012;10.968;2023-07-20T14:33:54;27.70;96.70
5834;DHT22;2943;48.012;10.968;2023-07-20T14:36:23;27.80;97.20
5834;DHT22;2943;48.012;10.968;2023-07-20T14:38:50;27.80;96.40
5834;DHT22;2943;48.012;10.968;2023-07-20T14:41:17;27.80;96.70
5834;DHT22;2943;48.012;10.968;2023-07-20T14:43:43;27.90;97.50
5834;DHT22;2943;48.012;10.968;2023-07-20T14:46:10;28.10;96.40
5834;DHT22;2943;48.012;10.968;2023-07-20T14:48:37;28.10;96.70
5834;DHT22;2943;48.012;10.968;2023-07-20T14:51:04;28.10;95.90
5834;DHT22;2943;48.012;10.968;2023-07-20T14:53:32;28.10;97.00
5834;DHT22;2943;48.012;10.968;2023-07-20T14:56:00;28.10;95.80
5834;DHT22;2943;48.012;10.968;2023-07-20T14:58:27;28.00;95.70
5834;DHT22;2943;48.012;10.968;2023-07-20T15:00:54;27.90;95.30
5834;DHT22;2943;48.012;10.968;2023-07-20T15:03:21;27.90;95.90
5834;DHT22;2943;48.012;10.968;2023-07-20T15:05:48;27.90;95.90
5834;DHT22;2943;48.012;10.968;2023-07-20T15:08:16;27.90;95.60
5834;DHT22;2943;48.012;10.968;2023-07-20T15:10:45;28.00;94.60
5834;DHT22;2943;48.012;10.968;2023-07-20T15:13:13;28.00;95.10
5834;DHT22;2943;48.012;10.968;2023-07-20T15:15:40;28.00;95.70
5834;DHT22;2943;48.012;10.968;2023-07-20T15:18:07;27.90;95.40
5834;DHT22;2943;48.012;10.968;2023-07-20T15:20:34;27.70;95.10
5834;DHT22;2943;48.012;10.968;2023-07-20T15:23:01;27.70;95.00
5834;DHT22;2943;48.012;10.968;2023-07-20T15:25:27;27.70;95.50
5834;DHT22;2943;48.012;10.968;2023-07-20T15:27:56;27.70;95.30
5834;DHT22;2943;48.012;10.968;2023-07-20T15:30:23;27.60;94.80
5834;DHT22;2943;48.012;10.968;2023-07-20T15:35:17;27.50;94.90
5834;DHT22;2943;48.012;10.968;2023-07-20T15:37:44;27.50;94.90
5834;DHT22;2943;48.012;10.968;2023-07-20T15:40:12;27.40;95.20
5834;DHT22;2943;48.012;10.968;2023-07-20T15:42:39;27.40;95.20
5834;DHT22;2943;48.012;10.968;2023-07-20T15:45:09;27.30;95.40
5834;DHT22;2943;48.012;10.968;2023-07-20T15:47:36;27.30;94.80
5834;DHT22;2943;48.012;10.968;2023-07-20T15:50:03;27.20;95.80
5834;DHT22;2943;48.012;10.968;2023-07-20T15:52:30;27.20;95.50
5834;DHT22;2943;48.012;10.968;2023-07-20T15:54:57;27.10;96.00